createdAt,value
2018-02-14T00:00:50.790Z,74.70
2018-02-14T00:03:20.007Z,76.00
2018-02-14T00:05:50.034Z,75.90
2018-02-14T00:08:18.803Z,75.60
2018-02-14T00:10:47.146Z,75.00
2018-02-14T00:13:15.547Z,74.80
2018-02-14T00:15:44.197Z,74.80
2018-02-14T00:18:12.626Z,75.40
2018-02-14T00:20:40.965Z,75.40
2018-02-14T00:23:09.394Z,75.20
2018-02-14T00:25:38.511Z,75.60
2018-02-14T00:28:07.626Z,75.70
2018-02-14T00:30:36.120Z,75.60
2018-02-14T00:33:04.518Z,75.60
2018-02-14T00:35:32.906Z,75.30
2018-02-14T00:38:01.441Z,75.50
2018-02-14T00:40:29.854Z,76.30
2018-02-14T00:42:58.329Z,76.20
2018-02-14T00:45:26.943Z,75.50
2018-02-14T00:47:55.290Z,75.30
2018-02-14T00:50:23.639Z,75.10
2018-02-14T00:52:52.182Z,75.10
2018-02-14T00:55:21.303Z,75.20
2018-02-14T00:57:49.654Z,75.10
2018-02-14T01:00:18.473Z,74.90
2018-02-14T01:02:46.822Z,74.80
2018-02-14T01:05:16.066Z,75.50
2018-02-14T01:07:44.478Z,75.40
2018-02-14T01:10:12.832Z,74.80
2018-02-14T01:12:41.219Z,73.30
2018-02-14T01:15:09.598Z,72.70
2018-02-14T01:17:37.946Z,73.20
2018-02-14T01:20:09.302Z,73.00
2018-02-14T01:22:38.665Z,72.70
2018-02-14T01:25:07.891Z,72.90
2018-02-14T01:27:37.007Z,72.90
2018-02-14T01:30:05.361Z,72.90
2018-02-14T01:32:33.783Z,73.60
2018-02-14T01:35:02.430Z,72.60
2018-02-14T01:37:30.895Z,72.70
2018-02-14T01:39:59.326Z,72.30
2018-02-14T01:42:27.772Z,73.80
2018-02-14T01:44:56.160Z,74.00
2018-02-14T01:47:25.306Z,74.30
2018-02-14T01:49:53.682Z,74.30
2018-02-14T01:52:22.798Z,74.90
2018-02-14T01:54:51.916Z,74.90
2018-02-14T01:57:21.055Z,75.20
2018-02-14T01:59:49.494Z,75.10
2018-02-14T02:02:18.741Z,75.10
2018-02-14T02:04:47.155Z,74.90
2018-02-14T02:07:17.262Z,73.00
2018-02-14T02:09:45.650Z,72.90
2018-02-14T02:12:13.994Z,73.30
2018-02-14T02:14:42.374Z,72.80
2018-02-14T02:17:10.750Z,72.20
2018-02-14T02:19:39.110Z,72.90
2018-02-14T02:22:07.742Z,74.10
2018-02-14T02:24:36.850Z,75.00
2018-02-14T02:27:05.354Z,75.00
2018-02-14T02:29:33.802Z,75.20
2018-02-14T02:32:02.454Z,74.30
2018-02-14T02:34:31.062Z,74.30
2018-02-14T02:36:59.733Z,75.10
2018-02-14T02:39:40.290Z,74.90
2018-02-14T02:42:08.699Z,73.40
2018-02-14T02:44:37.922Z,72.40
2018-02-14T02:47:07.437Z,73.40
2018-02-14T02:49:35.773Z,73.30
2018-02-14T02:52:04.307Z,73.80
2018-02-14T02:54:32.771Z,73.70
2018-02-14T02:57:01.889Z,74.20
2018-02-14T02:59:31.147Z,73.90
2018-02-14T03:01:59.717Z,73.80
2018-02-14T03:04:28.163Z,74.40
2018-02-14T03:06:56.590Z,74.20
2018-02-14T03:09:25.269Z,73.70
2018-02-14T03:11:53.616Z,73.70
2018-02-14T03:14:21.987Z,74.30
2018-02-14T03:16:50.327Z,74.20
2018-02-14T03:19:18.750Z,74.20
2018-02-14T03:21:47.162Z,74.60
2018-02-14T03:24:15.523Z,74.40
2018-02-14T03:26:43.903Z,75.00
2018-02-14T03:29:12.290Z,74.60
2018-02-14T03:31:40.665Z,74.50
2018-02-14T03:34:08.999Z,74.30
2018-02-14T03:36:37.383Z,72.70
2018-02-14T03:39:06.482Z,72.90
2018-02-14T03:41:34.879Z,72.90
2018-02-14T03:44:03.490Z,72.20
2018-02-14T03:46:31.960Z,72.00
2018-02-14T03:49:00.871Z,71.80
2018-02-14T03:51:29.494Z,72.50
2018-02-14T03:53:58.008Z,73.10
2018-02-14T03:56:26.397Z,73.40
2018-02-14T03:58:54.742Z,73.20
2018-02-14T04:01:23.466Z,73.20
2018-02-14T04:03:52.572Z,73.50
2018-02-14T04:06:20.911Z,73.10
2018-02-14T04:08:49.352Z,72.70
2018-02-14T04:11:17.939Z,73.20
2018-02-14T04:13:46.350Z,73.50
2018-02-14T04:16:15.545Z,73.70
2018-02-14T04:18:43.892Z,73.70
2018-02-14T04:21:12.275Z,73.40
2018-02-14T04:23:40.611Z,74.00
2018-02-14T04:26:08.990Z,74.60
2018-02-14T04:28:37.357Z,74.70
2018-02-14T04:31:06.474Z,74.30
2018-02-14T04:33:35.621Z,74.90
2018-02-14T04:36:04.194Z,74.90
2018-02-14T04:38:32.550Z,74.70
2018-02-14T04:41:01.002Z,74.50
2018-02-14T04:43:29.471Z,74.80
2018-02-14T04:45:57.962Z,74.80
2018-02-14T04:48:26.310Z,75.10
2018-02-14T04:50:54.698Z,75.50
2018-02-14T04:53:23.046Z,75.50
2018-02-14T04:55:51.395Z,75.50
2018-02-14T04:58:19.783Z,75.40
2018-02-14T05:00:48.599Z,76.30
2018-02-14T05:03:16.955Z,75.70
2018-02-14T05:05:46.104Z,76.00
2018-02-14T05:08:14.510Z,75.90
2018-02-14T05:10:43.182Z,75.10
2018-02-14T05:13:13.250Z,74.90
2018-02-14T05:15:41.594Z,74.90
2018-02-14T05:18:09.973Z,75.10
2018-02-14T05:20:38.323Z,75.90
2018-02-14T05:23:06.741Z,75.00
2018-02-14T05:25:35.855Z,74.10
2018-02-14T05:28:04.345Z,74.60
2018-02-14T05:30:33.026Z,74.60
2018-02-14T05:33:01.482Z,74.80
2018-02-14T05:35:29.937Z,75.60
2018-02-14T05:37:58.508Z,75.60
2018-02-14T05:40:26.904Z,75.90
2018-02-14T05:42:55.307Z,76.00
2018-02-14T05:45:24.816Z,77.60
2018-02-14T05:47:53.158Z,77.60
2018-02-14T05:50:21.498Z,77.90
2018-02-14T05:52:49.878Z,78.20
2018-02-14T05:55:18.281Z,78.60
2018-02-14T05:57:46.738Z,79.50
2018-02-14T06:00:15.093Z,79.50
2018-02-14T06:02:43.667Z,79.60
2018-02-14T06:05:12.779Z,80.90
2018-02-14T06:07:41.126Z,80.80
2018-02-14T06:10:09.506Z,81.40
2018-02-14T06:12:38.622Z,81.70
2018-02-14T06:15:07.778Z,81.80
2018-02-14T06:17:36.118Z,81.70
2018-02-14T06:20:04.534Z,81.90
2018-02-14T06:22:34.876Z,81.60
2018-02-14T06:25:03.323Z,81.60
2018-02-14T06:27:31.782Z,81.90
2018-02-14T06:30:00.224Z,82.10
2018-02-14T06:32:28.617Z,82.70
2018-02-14T06:34:59.571Z,82.50
2018-02-14T06:37:28.089Z,82.70
2018-02-14T06:39:56.463Z,82.60
2018-02-14T06:42:24.846Z,82.40
2018-02-14T06:44:53.190Z,81.70
2018-02-14T06:47:21.582Z,81.60
2018-02-14T06:49:49.922Z,82.30
2018-02-14T06:52:18.312Z,82.00
2018-02-14T06:54:47.511Z,82.00
2018-02-14T06:57:15.928Z,81.90
2018-02-14T06:59:44.329Z,81.60
2018-02-14T07:02:12.711Z,81.10
2018-02-14T07:04:41.233Z,81.30
2018-02-14T07:07:09.663Z,80.50
2018-02-14T07:09:38.821Z,80.50
2018-02-14T07:12:07.987Z,80.40
2018-02-14T07:14:36.610Z,80.80
2018-02-14T07:17:05.775Z,81.30
2018-02-14T07:19:34.634Z,81.00
2018-02-14T07:22:03.059Z,81.00
2018-02-14T07:24:31.570Z,80.80
2018-02-14T07:27:00.280Z,80.70
2018-02-14T07:29:28.769Z,80.20
2018-02-14T07:31:57.182Z,80.40
2018-02-14T07:34:25.914Z,81.00
2018-02-14T07:36:54.258Z,81.30
2018-02-14T07:39:23.370Z,82.30
2018-02-14T07:41:51.756Z,82.30
2018-02-14T07:44:20.093Z,83.30
2018-02-14T07:46:48.586Z,84.00
2018-02-14T07:49:17.037Z,83.60
2018-02-14T07:51:46.146Z,83.20
2018-02-14T07:54:15.306Z,82.90
2018-02-14T07:56:43.706Z,82.90
2018-02-14T07:59:12.083Z,82.00
2018-02-14T08:01:40.427Z,82.00
2018-02-14T08:04:08.806Z,82.10
2018-02-14T08:06:37.910Z,82.30
2018-02-14T08:09:07.108Z,82.70
2018-02-14T08:11:35.423Z,82.60
2018-02-14T08:14:04.037Z,82.10
2018-02-14T08:16:32.835Z,81.80
2018-02-14T08:19:02.146Z,81.80
2018-02-14T08:24:06.198Z,82.40
2018-02-14T08:26:34.646Z,82.40
2018-02-14T08:29:03.160Z,83.30
2018-02-14T08:31:32.458Z,82.60
2018-02-14T08:34:00.886Z,82.40
2018-02-14T08:36:29.370Z,82.60
2018-02-14T08:38:58.078Z,82.60
2018-02-14T08:41:26.427Z,83.20
2018-02-14T08:43:55.540Z,83.40
2018-02-14T08:46:24.034Z,83.30
2018-02-14T08:48:52.378Z,82.80
2018-02-14T08:51:20.726Z,82.50
2018-02-14T08:53:49.495Z,82.20
2018-02-14T08:56:17.862Z,82.50
2018-02-14T08:58:46.247Z,83.10
2018-02-14T09:01:14.681Z,82.90
2018-02-14T09:03:43.798Z,80.90
2018-02-14T09:06:12.951Z,81.80
2018-02-14T09:08:41.294Z,81.70
2018-02-14T09:11:09.682Z,83.50
2018-02-14T09:13:38.026Z,84.30
2018-02-14T09:16:06.375Z,84.70
2018-02-14T09:18:34.776Z,84.10
2018-02-14T09:21:03.206Z,82.90
2018-02-14T09:23:31.730Z,82.40
2018-02-14T09:26:00.302Z,82.10
2018-02-14T09:28:28.846Z,81.00
2018-02-14T09:30:57.338Z,81.40
2018-02-14T09:33:25.714Z,82.10
2018-02-14T09:35:54.057Z,82.90
2018-02-14T09:38:22.441Z,82.90
2018-02-14T09:40:50.826Z,82.70
2018-02-14T09:43:19.313Z,83.10
2018-02-14T09:45:47.898Z,83.00
2018-02-14T09:48:17.047Z,81.80
2018-02-14T09:50:45.469Z,81.70
2018-02-14T09:53:13.964Z,81.40
2018-02-14T09:55:42.314Z,82.20
2018-02-14T09:58:10.657Z,82.50
2018-02-14T10:00:39.046Z,82.40
2018-02-14T10:03:08.161Z,81.80
2018-02-14T10:05:36.509Z,81.80
2018-02-14T10:08:04.897Z,82.60
2018-02-14T10:10:33.282Z,83.50
2018-02-14T10:13:01.675Z,84.10
2018-02-14T10:15:30.554Z,82.70
2018-02-14T10:17:59.671Z,83.40
2018-02-14T10:20:28.023Z,83.40
2018-02-14T10:22:57.184Z,84.30
2018-02-14T10:25:25.530Z,84.30
2018-02-14T10:27:53.883Z,84.80
2018-02-14T10:30:22.262Z,84.80
2018-02-14T10:32:50.726Z,84.60
2018-02-14T10:35:19.841Z,84.60
2018-02-14T10:37:48.185Z,85.20
2018-02-14T10:40:16.599Z,83.70
2018-02-14T10:42:44.942Z,82.80
2018-02-14T10:45:13.305Z,82.00
2018-02-14T10:47:42.000Z,81.10
2018-02-14T10:50:11.106Z,80.00
2018-02-14T10:52:40.218Z,80.50
2018-02-14T10:55:08.603Z,80.50
2018-02-14T10:57:37.730Z,81.40
2018-02-14T11:00:06.114Z,81.40
2018-02-14T11:02:40.193Z,81.50
2018-02-14T11:05:14.157Z,81.60
2018-02-14T11:07:43.305Z,82.60
2018-02-14T11:10:11.658Z,82.60
2018-02-14T11:12:40.450Z,82.80
2018-02-14T11:15:09.566Z,82.90
2018-02-14T11:17:37.923Z,82.90
2018-02-14T11:20:06.299Z,82.40
2018-02-14T11:22:34.678Z,82.80
2018-02-14T11:25:03.034Z,82.90
2018-02-14T11:27:31.422Z,82.90
2018-02-14T11:29:59.770Z,82.90
2018-02-14T11:32:28.125Z,83.00
2018-02-14T11:34:56.507Z,81.30
2018-02-14T11:37:24.881Z,81.70
2018-02-14T11:39:53.274Z,82.40
2018-02-14T11:42:21.867Z,81.70
2018-02-14T11:44:50.978Z,83.60
2018-02-14T11:47:19.336Z,83.50
2018-02-14T11:49:47.723Z,82.90
2018-02-14T11:52:16.069Z,82.40
2018-02-14T11:54:44.450Z,82.90
2018-02-14T11:57:12.798Z,82.80
2018-02-14T11:59:41.170Z,83.20
2018-02-14T12:02:09.515Z,82.10
2018-02-14T12:04:37.886Z,82.80
2018-02-14T12:07:07.002Z,83.10
2018-02-14T12:09:36.146Z,83.80
2018-02-14T12:12:04.486Z,83.70
2018-02-14T12:14:32.864Z,83.70
2018-02-14T12:17:01.202Z,83.70
2018-02-14T12:19:29.579Z,84.10
2018-02-14T12:21:58.727Z,84.50
2018-02-14T12:24:27.076Z,84.50
2018-02-14T12:26:56.217Z,83.30
2018-02-14T12:29:24.571Z,83.30
2018-02-14T12:31:53.689Z,82.80
2018-02-14T12:34:22.836Z,81.90
2018-02-14T12:36:51.222Z,81.90
2018-02-14T12:39:19.568Z,82.50
2018-02-14T12:41:48.670Z,80.70
2018-02-14T12:44:17.049Z,81.10
2018-02-14T12:46:45.390Z,83.10
2018-02-14T12:49:13.782Z,82.90
2018-02-14T12:51:42.167Z,83.70
2018-02-14T12:54:10.553Z,83.50
2018-02-14T12:56:38.894Z,82.80
2018-02-14T12:59:07.279Z,83.20
2018-02-14T13:01:35.618Z,84.90
2018-02-14T13:04:04.309Z,84.60
2018-02-14T13:06:33.452Z,83.80
2018-02-14T13:09:01.786Z,83.60
2018-02-14T13:11:30.170Z,83.40
2018-02-14T13:14:00.341Z,83.90
2018-02-14T13:16:29.449Z,84.50
2018-02-14T13:18:58.613Z,84.50
2018-02-14T13:21:27.146Z,84.20
2018-02-14T13:23:56.250Z,83.50
2018-02-14T13:26:25.358Z,83.30
2018-02-14T13:28:54.516Z,82.90
2018-02-14T13:31:22.854Z,82.90
2018-02-14T13:33:51.968Z,83.70
2018-02-14T13:36:21.127Z,84.50
2018-02-14T13:38:49.473Z,84.50
2018-02-14T13:41:17.822Z,84.40
2018-02-14T13:43:46.214Z,84.60
2018-02-14T13:46:14.562Z,85.10
2018-02-14T13:48:42.962Z,84.60
2018-02-14T13:51:11.415Z,83.10
2018-02-14T13:53:39.762Z,84.90
2018-02-14T13:56:08.150Z,84.50
2018-02-14T13:58:36.506Z,83.50
2018-02-14T14:01:04.858Z,83.10
2018-02-14T14:03:33.910Z,82.30
2018-02-14T14:06:02.258Z,84.00
2018-02-14T14:08:30.619Z,85.10
2018-02-14T14:10:59.013Z,85.00
2018-02-14T14:13:27.363Z,85.00
2018-02-14T14:15:55.749Z,85.40
2018-02-14T14:18:24.898Z,85.30
2018-02-14T14:20:53.241Z,85.30
2018-02-14T14:23:22.402Z,85.90
2018-02-14T14:25:50.786Z,85.90
2018-02-14T14:28:19.170Z,86.50
2018-02-14T14:30:47.838Z,87.30
2018-02-14T14:33:16.959Z,87.40
2018-02-14T14:35:45.306Z,87.30
2018-02-14T14:38:13.693Z,87.10
2018-02-14T14:40:42.118Z,86.90
2018-02-14T14:43:11.237Z,87.00
2018-02-14T14:45:39.623Z,87.00
2018-02-14T14:48:08.770Z,87.00
2018-02-14T14:50:37.118Z,86.90
2018-02-14T14:53:06.266Z,86.50
2018-02-14T14:55:34.623Z,86.40
2018-02-14T14:58:03.738Z,86.50
2018-02-14T15:00:32.122Z,86.50
2018-02-14T15:03:01.273Z,87.10
2018-02-14T15:05:29.622Z,87.00
2018-02-14T15:07:58.782Z,85.20
2018-02-14T15:10:27.129Z,85.20
2018-02-14T15:12:55.527Z,86.00
2018-02-14T15:15:23.916Z,86.30
2018-02-14T15:17:52.299Z,86.60
2018-02-14T15:20:21.415Z,87.40
2018-02-14T15:22:49.801Z,87.30
2018-02-14T15:25:18.154Z,86.80
2018-02-14T15:27:46.545Z,86.50
2018-02-14T15:30:14.958Z,86.70
2018-02-14T15:32:44.070Z,87.20
2018-02-14T15:35:13.282Z,87.50
2018-02-14T15:37:43.085Z,87.50
2018-02-14T15:40:11.485Z,87.70
2018-02-14T15:42:39.838Z,88.00
2018-02-14T15:45:08.227Z,88.10
2018-02-14T15:47:36.570Z,87.60
2018-02-14T15:50:05.689Z,87.40
2018-02-14T15:52:34.073Z,87.30
2018-02-14T15:55:03.190Z,87.60
2018-02-14T15:57:31.582Z,87.50
2018-02-14T15:59:59.926Z,87.30
2018-02-14T16:02:28.309Z,88.00
2018-02-14T16:04:56.658Z,87.50
2018-02-14T16:07:25.046Z,87.20
2018-02-14T16:09:53.438Z,86.80
2018-02-14T16:12:21.832Z,86.80
2018-02-14T16:14:50.182Z,87.30
2018-02-14T16:17:18.562Z,87.70
2018-02-14T16:19:47.002Z,88.50
2018-02-14T16:22:15.349Z,88.80
2018-02-14T16:24:43.725Z,88.10
2018-02-14T16:27:12.070Z,88.50
2018-02-14T16:29:40.461Z,89.10
2018-02-14T16:32:08.854Z,88.70
2018-02-14T16:34:37.251Z,88.90
2018-02-14T16:37:05.634Z,89.40
2018-02-14T16:39:34.760Z,88.80
2018-02-14T16:42:03.142Z,88.80
2018-02-14T16:44:31.490Z,88.20
2018-02-14T16:46:59.839Z,88.90
2018-02-14T16:49:28.231Z,88.70
2018-02-14T16:51:56.586Z,88.40
2018-02-14T16:54:25.701Z,88.80
2018-02-14T16:56:54.845Z,88.30
2018-02-14T16:59:23.190Z,88.30
2018-02-14T17:01:52.342Z,87.90
2018-02-14T17:04:20.722Z,87.90
2018-02-14T17:06:49.115Z,87.10
2018-02-14T17:09:17.498Z,87.00
2018-02-14T17:11:45.850Z,87.00
2018-02-14T17:14:14.237Z,87.00
2018-02-14T17:16:42.604Z,87.70
2018-02-14T17:19:10.950Z,87.70
2018-02-14T17:21:40.238Z,87.60
2018-02-14T17:24:08.614Z,87.60
2018-02-14T17:26:36.995Z,87.50
2018-02-14T17:29:05.344Z,86.90
2018-02-14T17:31:33.733Z,87.40
2018-02-14T17:34:02.086Z,88.30
2018-02-14T17:36:30.466Z,88.30
2018-02-14T17:38:58.858Z,87.90
2018-02-14T17:41:27.205Z,87.70
2018-02-14T17:43:55.557Z,87.60
2018-02-14T17:46:23.941Z,88.40
2018-02-14T17:48:52.362Z,87.90
2018-02-14T17:51:21.473Z,88.70
2018-02-14T17:53:49.818Z,88.60
2018-02-14T17:56:18.201Z,88.80
2018-02-14T17:58:46.629Z,88.40
2018-02-14T18:01:14.974Z,88.60
2018-02-14T18:03:43.318Z,88.70
2018-02-14T18:06:12.465Z,87.90
2018-02-14T18:08:41.031Z,87.90
2018-02-14T18:11:10.151Z,87.20
2018-02-14T18:13:38.497Z,87.20
2018-02-14T18:16:12.746Z,87.00
2018-02-14T18:18:41.850Z,87.60
2018-02-14T18:21:10.998Z,87.80
2018-02-14T18:23:39.378Z,87.20
2018-02-14T18:26:07.737Z,87.40
2018-02-14T18:28:36.236Z,87.60
2018-02-14T18:31:04.578Z,87.60
2018-02-14T18:33:33.342Z,88.60
2018-02-14T18:36:01.734Z,87.90
2018-02-14T18:38:30.082Z,86.90
2018-02-14T18:40:58.469Z,86.60
2018-02-14T18:43:26.854Z,86.40
2018-02-14T18:45:55.215Z,86.20
2018-02-14T18:48:23.620Z,86.30
2018-02-14T18:50:51.970Z,86.00
2018-02-14T18:53:21.078Z,85.90
2018-02-14T18:55:50.229Z,86.10
2018-02-14T18:58:18.578Z,86.10
2018-02-14T19:00:47.694Z,86.50
2018-02-14T19:03:16.086Z,86.40
2018-02-14T19:05:44.458Z,86.70
2018-02-14T19:08:12.797Z,86.50
2018-02-14T19:10:41.182Z,86.10
2018-02-14T19:13:09.530Z,86.20
2018-02-14T19:15:38.245Z,85.80
2018-02-14T19:18:06.598Z,85.00
2018-02-14T19:20:34.962Z,84.80
2018-02-14T19:23:03.342Z,84.00
2018-02-14T19:25:31.694Z,83.50
2018-02-14T19:28:00.846Z,83.70
2018-02-14T19:30:29.199Z,83.70
2018-02-14T19:32:58.345Z,84.40
2018-02-14T19:35:26.694Z,84.40
2018-02-14T19:37:55.079Z,85.30
2018-02-14T19:40:23.464Z,85.70
2018-02-14T19:42:51.807Z,85.70
2018-02-14T19:45:22.079Z,84.70
2018-02-14T19:47:52.631Z,84.10
2018-02-14T19:50:22.068Z,84.50
2018-02-14T19:52:53.121Z,84.50
2018-02-14T19:55:23.382Z,84.40
2018-02-14T19:57:52.357Z,83.60
2018-02-14T20:00:21.636Z,83.60
2018-02-14T20:02:50.368Z,83.90
2018-02-14T20:05:20.092Z,84.20
2018-02-14T20:07:48.892Z,84.20
2018-02-14T20:10:17.899Z,84.20
2018-02-14T20:12:49.255Z,84.90
2018-02-14T20:15:18.076Z,84.90
2018-02-14T20:17:47.718Z,85.10
2018-02-14T20:20:18.642Z,85.00
2018-02-14T20:22:47.361Z,84.90
2018-02-14T20:25:17.873Z,85.50
2018-02-14T20:27:49.967Z,86.40
2018-02-14T20:30:18.853Z,86.40
2018-02-14T20:32:48.387Z,85.90
2018-02-14T20:35:17.068Z,85.40
2018-02-14T20:37:46.381Z,85.60
2018-02-14T20:40:15.173Z,85.40
2018-02-14T20:42:45.746Z,85.80
2018-02-14T20:45:14.423Z,85.50
2018-02-14T20:47:43.327Z,85.60
2018-02-14T20:50:13.664Z,86.10
2018-02-14T20:52:43.489Z,86.30
2018-02-14T20:55:13.928Z,86.70
2018-02-14T20:57:42.626Z,87.10
2018-02-14T21:05:21.018Z,86.90
2018-02-14T21:07:50.507Z,87.20
2018-02-14T21:10:20.572Z,86.30
2018-02-14T21:12:49.178Z,85.80
2018-02-14T21:15:20.318Z,85.50
2018-02-14T21:17:50.866Z,86.10
2018-02-14T21:20:19.772Z,86.10
2018-02-14T21:22:49.895Z,85.20
2018-02-14T21:25:18.594Z,84.80
2018-02-14T21:27:48.214Z,84.50
2018-02-14T21:30:18.440Z,85.40
2018-02-14T21:32:47.272Z,85.10
2018-02-14T21:35:18.135Z,84.40
2018-02-14T21:37:48.745Z,83.50
2018-02-14T21:40:18.374Z,84.60
2018-02-14T21:42:47.572Z,83.90
2018-02-14T21:45:17.092Z,83.70
2018-02-14T21:47:46.403Z,83.30
2018-02-14T21:50:15.515Z,83.00
2018-02-14T21:52:44.312Z,82.90
2018-02-14T21:55:12.773Z,82.80
2018-02-14T21:57:41.229Z,83.60
2018-02-14T22:00:09.594Z,84.30
2018-02-14T22:02:38.758Z,84.10
2018-02-14T22:05:07.127Z,84.00
2018-02-14T22:07:35.698Z,84.10
2018-02-14T22:10:04.829Z,83.30
2018-02-14T22:12:33.231Z,83.30
2018-02-14T22:15:01.593Z,82.90
2018-02-14T22:17:30.030Z,83.60
2018-02-14T22:19:58.410Z,83.20
2018-02-14T22:22:26.819Z,83.20
2018-02-14T22:24:55.194Z,83.90
2018-02-14T22:27:23.593Z,83.30
2018-02-14T22:29:52.063Z,82.40
2018-02-14T22:32:20.421Z,82.20
2018-02-14T22:34:49.865Z,81.30
2018-02-14T22:37:18.230Z,81.30
2018-02-14T22:39:46.593Z,82.40
2018-02-14T22:42:14.985Z,83.10
2018-02-14T22:44:43.355Z,83.30
2018-02-14T22:47:11.746Z,83.80
2018-02-14T22:49:40.154Z,83.70
2018-02-14T22:52:08.527Z,82.90
2018-02-14T22:54:37.079Z,82.90
2018-02-14T22:57:06.206Z,83.70
2018-02-14T22:59:34.657Z,83.60
2018-02-14T23:02:03.029Z,83.50
2018-02-14T23:04:31.446Z,82.10
2018-02-14T23:07:01.349Z,82.10
2018-02-14T23:09:30.116Z,82.00
2018-02-14T23:11:58.574Z,82.30
2018-02-14T23:14:26.941Z,81.70
2018-02-14T23:16:55.338Z,82.30
2018-02-14T23:19:23.702Z,82.90
2018-02-14T23:21:52.073Z,82.50
2018-02-14T23:24:20.473Z,82.80
2018-02-14T23:26:48.922Z,83.10
2018-02-14T23:29:18.081Z,82.50
2018-02-14T23:31:46.486Z,81.90
2018-02-14T23:34:14.893Z,82.60
2018-02-14T23:36:43.266Z,83.60
2018-02-14T23:39:11.636Z,83.70
2018-02-14T23:41:40.037Z,83.70
2018-02-14T23:44:08.424Z,82.80
2018-02-14T23:46:36.822Z,82.10
2018-02-14T23:49:05.223Z,82.30
2018-02-14T23:51:33.621Z,82.30
2018-02-14T23:54:02.028Z,82.50
2018-02-14T23:56:30.431Z,83.40
2018-02-14T23:58:58.830Z,84.50
